TimeCST,TemperatureF,Dew PointF,Humidity,Sea Level PressureIn,VisibilityMPH,Wind Direction,Wind SpeedMPH,Gust SpeedMPH,PrecipitationIn,Events,Conditions,WindDirDegrees,DateUTC
12:15 AM,55.4,53.6,94,30.02,0.8,Calm,Calm,-,N/A,,Overcast,0,2012-12-09 06:15:00
12:35 AM,57.2,55.4,94,30.01,1.8,Calm,Calm,-,N/A,,Overcast,0,2012-12-09 06:35:00
12:55 AM,57.2,55.4,94,30.02,1.8,Calm,Calm,-,N/A,,Overcast,0,2012-12-09 06:55:00
1:15 AM,57.2,55.4,94,30.01,3.0,Calm,Calm,-,N/A,,Overcast,0,2012-12-09 07:15:00
1:35 AM,57.2,55.4,94,30.01,4.0,Calm,Calm,-,N/A,,Overcast,0,2012-12-09 07:35:00
1:55 AM,59.0,57.2,94,30.01,5.0,Calm,Calm,-,N/A,,Overcast,0,2012-12-09 07:55:00
2:15 AM,59.0,57.2,94,30.01,5.0,Calm,Calm,-,N/A,,Overcast,0,2012-12-09 08:15:00
2:35 AM,59.0,57.2,94,30.01,5.0,Calm,Calm,-,N/A,,Overcast,0,2012-12-09 08:35:00
2:55 AM,59.0,57.2,94,30.01,5.0,Calm,Calm,-,N/A,,Overcast,0,2012-12-09 08:55:00
3:15 AM,59.0,57.2,94,30.01,9.0,Calm,Calm,-,N/A,,Overcast,0,2012-12-09 09:15:00
3:55 AM,60.8,57.2,88,30.01,4.0,SW,3.5,-,N/A,,Overcast,220,2012-12-09 09:55:00
4:15 AM,60.8,57.2,88,30.02,3.0,South,3.5,-,N/A,,Overcast,190,2012-12-09 10:15:00
4:35 AM,60.8,57.2,88,30.02,4.0,South,4.6,-,N/A,,Overcast,180,2012-12-09 10:35:00
4:55 AM,60.8,57.2,88,30.02,6.0,South,3.5,-,N/A,,Overcast,180,2012-12-09 10:55:00
5:15 AM,60.8,57.2,88,30.03,8.0,South,3.5,-,N/A,,Overcast,190,2012-12-09 11:15:00
5:35 AM,60.8,57.2,88,30.03,10.0,SSW,3.5,-,N/A,,Overcast,200,2012-12-09 11:35:00
5:55 AM,60.8,57.2,88,30.04,10.0,Calm,Calm,-,N/A,,Overcast,0,2012-12-09 11:55:00
6:15 AM,60.8,57.2,88,30.05,10.0,Calm,Calm,-,N/A,,Overcast,0,2012-12-09 12:15:00
6:35 AM,60.8,55.4,82,30.05,9.0,Calm,Calm,-,N/A,,Mostly Cloudy,0,2012-12-09 12:35:00
6:55 AM,59.0,55.4,88,30.04,9.0,South,4.6,-,N/A,,Mostly Cloudy,190,2012-12-09 12:55:00
7:15 AM,60.8,55.4,82,30.05,10.0,South,4.6,-,N/A,,Mostly Cloudy,180,2012-12-09 13:15:00
7:35 AM,60.8,57.2,88,30.05,10.0,Calm,Calm,-,N/A,,Overcast,0,2012-12-09 13:35:00
7:55 AM,60.8,57.2,88,30.05,10.0,South,4.6,-,N/A,,Overcast,190,2012-12-09 13:55:00
8:15 AM,60.8,57.2,88,30.06,10.0,South,5.8,-,N/A,,Overcast,190,2012-12-09 14:15:00
8:35 AM,60.8,57.2,88,30.06,10.0,SSW,5.8,-,N/A,,Overcast,210,2012-12-09 14:35:00
8:55 AM,62.6,55.4,77,30.07,10.0,SSW,5.8,-,N/A,,Overcast,210,2012-12-09 14:55:00
9:35 AM,62.6,55.4,77,30.08,10.0,SSW,5.8,-,N/A,,Overcast,210,2012-12-09 15:35:00
9:55 AM,64.4,55.4,73,30.07,10.0,SSW,9.2,-,N/A,,Mostly Cloudy,200,2012-12-09 15:55:00
10:35 AM,64.4,55.4,73,30.06,10.0,South,8.1,16.1,N/A,,Scattered Clouds,190,2012-12-09 16:35:00
10:55 AM,66.2,55.4,68,30.05,10.0,South,10.4,17.3,N/A,,Mostly Cloudy,190,2012-12-09 16:55:00
11:15 AM,66.2,55.4,68,30.04,10.0,South,9.2,-,N/A,,Mostly Cloudy,180,2012-12-09 17:15:00
11:36 AM,68.0,55.4,64,30.03,10.0,South,10.4,18.4,N/A,,Mostly Cloudy,190,2012-12-09 17:36:00
11:55 AM,69.8,55.4,60,30.02,10.0,SSW,11.5,18.4,N/A,,Mostly Cloudy,200,2012-12-09 17:55:00
12:35 PM,68.0,53.6,60,30.00,10.0,South,11.5,-,N/A,,Mostly Cloudy,180,2012-12-09 18:35:00
12:55 PM,69.8,53.6,56,30.00,10.0,SSW,11.5,20.7,N/A,,Scattered Clouds,200,2012-12-09 18:55:00
1:15 PM,69.8,53.6,56,30.00,10.0,SSW,10.4,-,N/A,,Scattered Clouds,200,2012-12-09 19:15:00
1:35 PM,69.8,55.4,60,30.00,10.0,SW,12.7,16.1,N/A,,Mostly Cloudy,230,2012-12-09 19:35:00
1:55 PM,68.0,53.6,60,30.00,10.0,SW,5.8,-,N/A,,Scattered Clouds,220,2012-12-09 19:55:00
2:15 PM,68.0,53.6,60,30.00,10.0,SSW,8.1,-,N/A,,Mostly Cloudy,210,2012-12-09 20:15:00
2:35 PM,68.0,53.6,60,29.99,10.0,SSW,6.9,-,N/A,,Mostly Cloudy,210,2012-12-09 20:35:00
2:55 PM,68.0,53.6,60,29.99,10.0,SW,4.6,-,N/A,,Partly Cloudy,230,2012-12-09 20:55:00
3:15 PM,68.0,53.6,60,29.99,10.0,SSW,4.6,-,N/A,,Clear,210,2012-12-09 21:15:00
3:35 PM,66.2,53.6,64,29.99,10.0,SSW,4.6,-,N/A,,Clear,200,2012-12-09 21:35:00
3:55 PM,66.2,53.6,64,29.99,10.0,Calm,Calm,-,N/A,,Clear,0,2012-12-09 21:55:00
4:15 PM,66.2,53.6,64,29.99,10.0,Calm,Calm,-,N/A,,Clear,0,2012-12-09 22:15:00
4:35 PM,64.4,53.6,68,29.98,10.0,Calm,Calm,-,N/A,,Clear,0,2012-12-09 22:35:00
4:55 PM,62.6,53.6,72,29.98,10.0,Calm,Calm,-,N/A,,Clear,0,2012-12-09 22:55:00
5:15 PM,60.8,53.6,77,29.97,10.0,Calm,Calm,-,N/A,,Clear,0,2012-12-09 23:15:00
5:35 PM,59.0,53.6,82,29.97,10.0,Calm,Calm,-,N/A,,Clear,0,2012-12-09 23:35:00
5:55 PM,57.2,51.8,82,29.96,10.0,Calm,Calm,-,N/A,,Clear,0,2012-12-09 23:55:00
6:15 PM,55.4,51.8,88,29.96,10.0,Calm,Calm,-,N/A,,Clear,0,2012-12-10 00:15:00
6:35 PM,55.4,51.8,88,29.97,10.0,Calm,Calm,-,N/A,,Clear,0,2012-12-10 00:35:00
6:55 PM,55.4,51.8,88,29.97,10.0,Calm,Calm,-,N/A,,Clear,0,2012-12-10 00:55:00
7:15 PM,53.6,50.0,88,29.97,10.0,Calm,Calm,-,N/A,,Clear,0,2012-12-10 01:15:00
7:35 PM,53.6,51.8,94,29.96,10.0,Calm,Calm,-,N/A,,Partly Cloudy,0,2012-12-10 01:35:00
7:55 PM,53.6,50.0,88,29.96,10.0,Calm,Calm,-,N/A,,Scattered Clouds,0,2012-12-10 01:55:00
8:15 PM,57.2,53.6,88,29.96,10.0,SW,4.6,-,N/A,,Mostly Cloudy,230,2012-12-10 02:15:00
8:35 PM,57.2,51.8,82,29.95,10.0,Calm,Calm,-,N/A,,Mostly Cloudy,0,2012-12-10 02:35:00
8:55 PM,55.4,51.8,88,29.95,10.0,Calm,Calm,-,N/A,,Clear,0,2012-12-10 02:55:00
9:15 PM,55.4,51.8,88,29.94,10.0,Calm,Calm,-,N/A,,Clear,0,2012-12-10 03:15:00
9:35 PM,55.4,51.8,88,29.94,10.0,Calm,Calm,-,N/A,,Mostly Cloudy,0,2012-12-10 03:35:00
9:55 PM,57.2,53.6,88,29.93,10.0,Calm,Calm,-,N/A,,Overcast,0,2012-12-10 03:55:00
10:35 PM,64.4,53.6,68,29.91,10.0,SSW,4.6,-,N/A,,Mostly Cloudy,200,2012-12-10 04:35:00
10:55 PM,62.6,53.6,72,29.92,10.0,West,5.8,-,N/A,,Overcast,260,2012-12-10 04:55:00
11:15 PM,64.4,53.6,68,29.91,10.0,Calm,Calm,-,N/A,,Overcast,0,2012-12-10 05:15:00
11:35 PM,64.4,53.6,68,29.90,10.0,South,5.8,-,N/A,,Overcast,190,2012-12-10 05:35:00
11:55 PM,64.4,55.4,73,29.89,10.0,SSW,5.8,-,N/A,,Overcast,200,2012-12-10 05:55:00